sensor_id;sensor_type;location;lat;lon;timestamp;P1;durP1;ratioP1;P2;durP2;ratioP2
34212;SDS011;20477;51.390;8.102;2022-12-18T00:02:20;14.20;;;7.20;;
34212;SDS011;20477;51.390;8.102;2022-12-18T00:04:48;16.92;;;7.10;;
34212;SDS011;20477;51.390;8.102;2022-12-18T00:07:15;14.50;;;6.90;;
34212;SDS011;20477;51.390;8.102;2022-12-18T00:09:41;16.25;;;7.72;;
34212;SDS011;20477;51.390;8.102;2022-12-18T00:12:08;14.02;;;7.35;;
34212;SDS011;20477;51.390;8.102;2022-12-18T00:14:43;13.63;;;8.00;;
34212;SDS011;20477;51.390;8.102;2022-12-18T00:17:10;13.65;;;6.63;;
34212;SDS011;20477;51.390;8.102;2022-12-18T00:19:37;14.45;;;6.95;;
34212;SDS011;20477;51.390;8.102;2022-12-18T00:22:04;17.20;;;6.68;;
34212;SDS011;20477;51.390;8.102;2022-12-18T00:24:32;16.70;;;7.13;;
34212;SDS011;20477;51.390;8.102;2022-12-18T00:26:59;18.48;;;9.57;;
34212;SDS011;20477;51.390;8.102;2022-12-18T00:29:26;14.40;;;8.15;;
34212;SDS011;20477;51.390;8.102;2022-12-18T00:31:53;14.75;;;8.68;;
34212;SDS011;20477;51.390;8.102;2022-12-18T00:34:19;15.48;;;7.57;;
34212;SDS011;20477;51.390;8.102;2022-12-18T00:36:47;10.80;;;6.40;;
34212;SDS011;20477;51.390;8.102;2022-12-18T00:39:14;15.23;;;6.50;;
34212;SDS011;20477;51.390;8.102;2022-12-18T00:41:41;14.43;;;7.20;;
34212;SDS011;20477;51.390;8.102;2022-12-18T00:44:27;13.00;;;6.60;;
34212;SDS011;20477;51.390;8.102;2022-12-18T00:46:54;13.93;;;7.15;;
34212;SDS011;20477;51.390;8.102;2022-12-18T00:49:20;10.05;;;6.47;;
34212;SDS011;20477;51.390;8.102;2022-12-18T00:51:47;13.10;;;6.88;;
34212;SDS011;20477;51.390;8.102;2022-12-18T00:54:15;11.98;;;6.35;;
34212;SDS011;20477;51.390;8.102;2022-12-18T00:56:43;16.90;;;6.07;;
34212;SDS011;20477;51.390;8.102;2022-12-18T00:59:15;10.35;;;5.63;;
34212;SDS011;20477;51.390;8.102;2022-12-18T01:01:43;9.88;;;5.90;;
34212;SDS011;20477;51.390;8.102;2022-12-18T01:04:11;10.60;;;5.60;;
34212;SDS011;20477;51.390;8.102;2022-12-18T01:06:38;11.15;;;6.60;;
34212;SDS011;20477;51.390;8.102;2022-12-18T01:09:05;11.27;;;6.18;;
34212;SDS011;20477;51.390;8.102;2022-12-18T01:11:32;15.27;;;6.50;;
34212;SDS011;20477;51.390;8.102;2022-12-18T01:13:59;10.57;;;5.90;;
34212;SDS011;20477;51.390;8.102;2022-12-18T01:16:26;9.23;;;5.82;;
34212;SDS011;20477;51.390;8.102;2022-12-18T01:18:53;11.73;;;6.13;;
34212;SDS011;20477;51.390;8.102;2022-12-18T01:21:21;15.20;;;5.90;;
34212;SDS011;20477;51.390;8.102;2022-12-18T01:23:54;10.45;;;6.25;;
34212;SDS011;20477;51.390;8.102;2022-12-18T01:26:22;10.18;;;5.50;;
34212;SDS011;20477;51.390;8.102;2022-12-18T01:28:50;10.02;;;6.05;;
34212;SDS011;20477;51.390;8.102;2022-12-18T01:31:22;10.63;;;5.18;;
34212;SDS011;20477;51.390;8.102;2022-12-18T01:36:28;11.88;;;5.82;;
34212;SDS011;20477;51.390;8.102;2022-12-18T01:38:59;11.40;;;5.85;;
34212;SDS011;20477;51.390;8.102;2022-12-18T01:41:28;11.82;;;5.95;;
34212;SDS011;20477;51.390;8.102;2022-12-18T01:47:20;11.40;;;6.57;;
34212;SDS011;20477;51.390;8.102;2022-12-18T01:49:51;11.40;;;6.15;;
34212;SDS011;20477;51.390;8.102;2022-12-18T01:52:19;11.98;;;6.25;;
34212;SDS011;20477;51.390;8.102;2022-12-18T01:54:48;10.52;;;6.78;;
34212;SDS011;20477;51.390;8.102;2022-12-18T01:57:15;11.90;;;6.25;;
34212;SDS011;20477;51.390;8.102;2022-12-18T01:59:43;16.45;;;8.02;;
34212;SDS011;20477;51.390;8.102;2022-12-18T02:02:12;12.48;;;5.90;;
34212;SDS011;20477;51.390;8.102;2022-12-18T02:04:39;9.52;;;5.85;;
34212;SDS011;20477;51.390;8.102;2022-12-18T02:07:23;20.15;;;7.38;;
34212;SDS011;20477;51.390;8.102;2022-12-18T02:15:18;11.73;;;5.20;;
34212;SDS011;20477;51.390;8.102;2022-12-18T02:17:58;12.50;;;5.13;;
34212;SDS011;20477;51.390;8.102;2022-12-18T02:20:33;8.13;;;4.65;;
34212;SDS011;20477;51.390;8.102;2022-12-18T02:28:22;12.57;;;7.95;;
34212;SDS011;20477;51.390;8.102;2022-12-18T02:30:52;9.45;;;5.57;;
34212;SDS011;20477;51.390;8.102;2022-12-18T02:33:20;8.85;;;5.25;;
34212;SDS011;20477;51.390;8.102;2022-12-18T02:35:48;9.93;;;4.50;;
34212;SDS011;20477;51.390;8.102;2022-12-18T02:38:15;11.15;;;6.15;;
34212;SDS011;20477;51.390;8.102;2022-12-18T02:40:43;10.55;;;5.93;;
34212;SDS011;20477;51.390;8.102;2022-12-18T02:43:12;19.27;;;8.77;;
34212;SDS011;20477;51.390;8.102;2022-12-18T02:45:50;10.60;;;5.82;;
34212;SDS011;20477;51.390;8.102;2022-12-18T02:48:27;7.07;;;4.57;;
34212;SDS011;20477;51.390;8.102;2022-12-18T02:53:45;34.63;;;19.27;;
34212;SDS011;20477;51.390;8.102;2022-12-18T02:56:46;11.52;;;6.20;;
34212;SDS011;20477;51.390;8.102;2022-12-18T02:59:28;11.88;;;5.63;;
34212;SDS011;20477;51.390;8.102;2022-12-18T03:02:19;10.63;;;6.85;;
34212;SDS011;20477;51.390;8.102;2022-12-18T03:04:58;8.48;;;5.38;;
34212;SDS011;20477;51.390;8.102;2022-12-18T03:07:40;12.85;;;5.82;;
34212;SDS011;20477;51.390;8.102;2022-12-18T03:10:14;11.23;;;5.72;;
34212;SDS011;20477;51.390;8.102;2022-12-18T03:12:44;15.20;;;6.82;;
34212;SDS011;20477;51.390;8.102;2022-12-18T03:15:19;11.40;;;4.85;;
34212;SDS011;20477;51.390;8.102;2022-12-18T03:17:54;9.93;;;4.82;;
34212;SDS011;20477;51.390;8.102;2022-12-18T03:20:23;8.30;;;5.10;;
34212;SDS011;20477;51.390;8.102;2022-12-18T03:22:53;8.70;;;4.95;;
34212;SDS011;20477;51.390;8.102;2022-12-18T03:25:24;13.05;;;5.63;;
34212;SDS011;20477;51.390;8.102;2022-12-18T03:27:53;9.75;;;4.60;;
34212;SDS011;20477;51.390;8.102;2022-12-18T03:30:22;15.85;;;5.18;;
34212;SDS011;20477;51.390;8.102;2022-12-18T03:32:53;7.55;;;4.70;;
34212;SDS011;20477;51.390;8.102;2022-12-18T03:35:29;12.25;;;5.00;;
34212;SDS011;20477;51.390;8.102;2022-12-18T03:38:00;8.75;;;4.50;;
34212;SDS011;20477;51.390;8.102;2022-12-18T03:40:30;12.50;;;4.65;;
34212;SDS011;20477;51.390;8.102;2022-12-18T03:43:03;9.15;;;5.15;;
34212;SDS011;20477;51.390;8.102;2022-12-18T03:45:39;14.05;;;4.93;;
34212;SDS011;20477;51.390;8.102;2022-12-18T03:50:56;9.07;;;4.68;;
34212;SDS011;20477;51.390;8.102;2022-12-18T03:56:31;8.93;;;4.78;;
34212;SDS011;20477;51.390;8.102;2022-12-18T03:58:59;9.95;;;5.45;;
34212;SDS011;20477;51.390;8.102;2022-12-18T04:01:30;12.32;;;4.88;;
34212;SDS011;20477;51.390;8.102;2022-12-18T04:04:00;9.82;;;5.63;;
34212;SDS011;20477;51.390;8.102;2022-12-18T04:06:28;8.23;;;4.70;;
34212;SDS011;20477;51.390;8.102;2022-12-18T04:08:56;8.75;;;5.28;;
34212;SDS011;20477;51.390;8.102;2022-12-18T04:11:24;7.05;;;4.55;;
34212;SDS011;20477;51.390;8.102;2022-12-18T04:13:52;7.90;;;4.07;;
34212;SDS011;20477;51.390;8.102;2022-12-18T04:16:23;7.68;;;4.22;;
34212;SDS011;20477;51.390;8.102;2022-12-18T04:18:51;6.28;;;4.30;;
34212;SDS011;20477;51.390;8.102;2022-12-18T04:21:18;17.20;;;4.47;;
34212;SDS011;20477;51.390;8.102;2022-12-18T04:23:45;6.75;;;4.05;;
34212;SDS011;20477;51.390;8.102;2022-12-18T04:26:12;8.13;;;4.47;;
34212;SDS011;20477;51.390;8.102;2022-12-18T04:28:39;10.65;;;5.15;;
34212;SDS011;20477;51.390;8.102;2022-12-18T04:31:06;6.18;;;3.88;;
34212;SDS011;20477;51.390;8.102;2022-12-18T04:33:33;7.65;;;4.72;;
34212;SDS011;20477;51.390;8.102;2022-12-18T04:36:00;6.85;;;3.92;;
34212;SDS011;20477;51.390;8.102;2022-12-18T04:38:27;9.20;;;4.57;;
34212;SDS011;20477;51.390;8.102;2022-12-18T04:40:54;7.85;;;4.22;;
34212;SDS011;20477;51.390;8.102;2022-12-18T04:43:21;7.07;;;4.03;;
34212;SDS011;20477;51.390;8.102;2022-12-18T04:45:48;8.63;;;4.50;;
34212;SDS011;20477;51.390;8.102;2022-12-18T04:48:15;8.10;;;4.45;;
34212;SDS011;20477;51.390;8.102;2022-12-18T04:50:41;7.03;;;4.20;;
34212;SDS011;20477;51.390;8.102;2022-12-18T04:53:08;10.05;;;4.07;;
34212;SDS011;20477;51.390;8.102;2022-12-18T04:55:35;9.80;;;4.65;;
34212;SDS011;20477;51.390;8.102;2022-12-18T04:58:02;8.57;;;5.07;;
34212;SDS011;20477;51.390;8.102;2022-12-18T05:00:29;7.47;;;4.60;;
34212;SDS011;20477;51.390;8.102;2022-12-18T05:02:56;10.52;;;4.82;;
34212;SDS011;20477;51.390;8.102;2022-12-18T05:05:23;7.80;;;4.15;;
34212;SDS011;20477;51.390;8.102;2022-12-18T05:07:50;8.73;;;4.47;;
34212;SDS011;20477;51.390;8.102;2022-12-18T05:10:17;7.90;;;4.68;;
34212;SDS011;20477;51.390;8.102;2022-12-18T05:12:44;6.82;;;4.75;;
34212;SDS011;20477;51.390;8.102;2022-12-18T05:15:30;11.75;;;4.07;;
34212;SDS011;20477;51.390;8.102;2022-12-18T05:17:58;9.35;;;4.30;;
34212;SDS011;20477;51.390;8.102;2022-12-18T05:20:26;5.85;;;4.13;;
34212;SDS011;20477;51.390;8.102;2022-12-18T05:22:54;5.80;;;4.30;;
34212;SDS011;20477;51.390;8.102;2022-12-18T05:25:22;7.13;;;4.18;;
34212;SDS011;20477;51.390;8.102;2022-12-18T05:27:49;10.10;;;4.70;;
34212;SDS011;20477;51.390;8.102;2022-12-18T05:30:16;8.27;;;4.75;;
34212;SDS011;20477;51.390;8.102;2022-12-18T05:32:43;10.38;;;4.63;;
34212;SDS011;20477;51.390;8.102;2022-12-18T05:35:10;8.82;;;4.63;;
34212;SDS011;20477;51.390;8.102;2022-12-18T05:37:37;10.60;;;5.15;;
34212;SDS011;20477;51.390;8.102;2022-12-18T05:40:08;8.07;;;4.68;;
34212;SDS011;20477;51.390;8.102;2022-12-18T05:42:35;8.25;;;4.30;;
34212;SDS011;20477;51.390;8.102;2022-12-18T05:45:02;8.05;;;4.25;;
34212;SDS011;20477;51.390;8.102;2022-12-18T05:47:30;6.90;;;3.97;;
34212;SDS011;20477;51.390;8.102;2022-12-18T05:49:57;12.30;;;4.68;;
34212;SDS011;20477;51.390;8.102;2022-12-18T05:52:24;8.43;;;4.10;;
34212;SDS011;20477;51.390;8.102;2022-12-18T05:54:51;11.55;;;4.32;;
34212;SDS011;20477;51.390;8.102;2022-12-18T05:57:17;9.23;;;4.47;;
34212;SDS011;20477;51.390;8.102;2022-12-18T05:59:44;10.70;;;4.15;;
34212;SDS011;20477;51.390;8.102;2022-12-18T06:02:11;7.57;;;4.68;;
34212;SDS011;20477;51.390;8.102;2022-12-18T06:04:38;7.45;;;4.57;;
34212;SDS011;20477;51.390;8.102;2022-12-18T06:07:05;9.43;;;4.72;;
34212;SDS011;20477;51.390;8.102;2022-12-18T06:09:32;11.85;;;4.95;;
34212;SDS011;20477;51.390;8.102;2022-12-18T06:11:59;7.80;;;3.90;;
34212;SDS011;20477;51.390;8.102;2022-12-18T06:14:26;9.93;;;4.97;;
34212;SDS011;20477;51.390;8.102;2022-12-18T06:16:52;7.53;;;4.72;;
34212;SDS011;20477;51.390;8.102;2022-12-18T06:19:19;9.70;;;4.55;;
34212;SDS011;20477;51.390;8.102;2022-12-18T06:21:46;8.43;;;4.63;;
34212;SDS011;20477;51.390;8.102;2022-12-18T06:24:13;8.02;;;4.75;;
34212;SDS011;20477;51.390;8.102;2022-12-18T06:26:40;9.27;;;4.88;;
34212;SDS011;20477;51.390;8.102;2022-12-18T06:29:07;5.40;;;3.58;;
34212;SDS011;20477;51.390;8.102;2022-12-18T06:31:34;8.98;;;4.82;;
34212;SDS011;20477;51.390;8.102;2022-12-18T06:34:02;9.20;;;4.30;;
34212;SDS011;20477;51.390;8.102;2022-12-18T06:36:29;6.72;;;4.07;;
34212;SDS011;20477;51.390;8.102;2022-12-18T06:38:57;7.93;;;4.53;;
34212;SDS011;20477;51.390;8.102;2022-12-18T06:41:23;9.18;;;4.30;;
34212;SDS011;20477;51.390;8.102;2022-12-18T06:43:50;8.75;;;4.43;;
34212;SDS011;20477;51.390;8.102;2022-12-18T06:46:24;8.77;;;4.63;;
34212;SDS011;20477;51.390;8.102;2022-12-18T06:48:51;6.45;;;4.00;;
34212;SDS011;20477;51.390;8.102;2022-12-18T06:51:21;8.38;;;4.35;;
34212;SDS011;20477;51.390;8.102;2022-12-18T06:53:49;8.98;;;4.63;;
34212;SDS011;20477;51.390;8.102;2022-12-18T06:56:16;9.65;;;5.13;;
34212;SDS011;20477;51.390;8.102;2022-12-18T06:58:43;8.10;;;4.38;;
34212;SDS011;20477;51.390;8.102;2022-12-18T07:01:10;10.35;;;5.47;;
34212;SDS011;20477;51.390;8.102;2022-12-18T07:03:38;11.18;;;5.65;;
34212;SDS011;20477;51.390;8.102;2022-12-18T07:06:29;8.43;;;5.05;;
34212;SDS011;20477;51.390;8.102;2022-12-18T07:08:54;8.88;;;4.82;;
34212;SDS011;20477;51.390;8.102;2022-12-18T07:11:21;9.90;;;4.93;;
34212;SDS011;20477;51.390;8.102;2022-12-18T07:13:48;10.57;;;5.60;;
34212;SDS011;20477;51.390;8.102;2022-12-18T07:16:17;8.77;;;5.40;;
34212;SDS011;20477;51.390;8.102;2022-12-18T07:18:50;8.48;;;5.25;;
34212;SDS011;20477;51.390;8.102;2022-12-18T07:21:18;8.32;;;5.65;;
34212;SDS011;20477;51.390;8.102;2022-12-18T07:23:46;11.40;;;5.03;;
34212;SDS011;20477;51.390;8.102;2022-12-18T07:26:15;9.07;;;4.55;;
34212;SDS011;20477;51.390;8.102;2022-12-18T07:28:46;10.18;;;5.47;;
34212;SDS011;20477;51.390;8.102;2022-12-18T07:31:14;11.63;;;5.38;;
34212;SDS011;20477;51.390;8.102;2022-12-18T07:33:43;10.10;;;5.50;;
34212;SDS011;20477;51.390;8.102;2022-12-18T07:36:10;9.13;;;5.35;;
34212;SDS011;20477;51.390;8.102;2022-12-18T07:38:38;10.30;;;6.90;;
34212;SDS011;20477;51.390;8.102;2022-12-18T07:41:06;14.57;;;7.28;;
34212;SDS011;20477;51.390;8.102;2022-12-18T07:43:34;16.20;;;8.80;;
34212;SDS011;20477;51.390;8.102;2022-12-18T07:46:02;12.90;;;7.65;;
34212;SDS011;20477;51.390;8.102;2022-12-18T07:48:29;21.73;;;9.60;;
34212;SDS011;20477;51.390;8.102;2022-12-18T07:50:59;14.70;;;7.85;;
34212;SDS011;20477;51.390;8.102;2022-12-18T07:53:27;13.55;;;8.23;;
34212;SDS011;20477;51.390;8.102;2022-12-18T07:55:57;12.25;;;6.30;;
34212;SDS011;20477;51.390;8.102;2022-12-18T07:58:45;12.43;;;6.43;;
34212;SDS011;20477;51.390;8.102;2022-12-18T08:01:14;12.32;;;6.93;;
34212;SDS011;20477;51.390;8.102;2022-12-18T08:03:41;10.88;;;6.07;;
34212;SDS011;20477;51.390;8.102;2022-12-18T08:06:08;15.45;;;7.35;;
34212;SDS011;20477;51.390;8.102;2022-12-18T08:08:36;19.13;;;8.05;;
34212;SDS011;20477;51.390;8.102;2022-12-18T08:11:03;14.43;;;5.55;;
34212;SDS011;20477;51.390;8.102;2022-12-18T08:13:30;9.25;;;5.63;;
34212;SDS011;20477;51.390;8.102;2022-12-18T08:16:02;13.23;;;6.55;;
34212;SDS011;20477;51.390;8.102;2022-12-18T08:18:31;10.50;;;5.57;;
34212;SDS011;20477;51.390;8.102;2022-12-18T08:21:08;10.50;;;5.90;;
34212;SDS011;20477;51.390;8.102;2022-12-18T08:23:43;10.88;;;5.88;;
34212;SDS011;20477;51.390;8.102;2022-12-18T08:26:11;10.30;;;5.25;;
34212;SDS011;20477;51.390;8.102;2022-12-18T08:28:38;15.07;;;5.68;;
34212;SDS011;20477;51.390;8.102;2022-12-18T08:31:06;12.93;;;6.30;;
34212;SDS011;20477;51.390;8.102;2022-12-18T08:33:35;9.23;;;5.00;;
34212;SDS011;20477;51.390;8.102;2022-12-18T08:36:03;8.90;;;5.10;;
34212;SDS011;20477;51.390;8.102;2022-12-18T08:38:34;12.93;;;7.35;;
34212;SDS011;20477;51.390;8.102;2022-12-18T08:41:02;11.63;;;5.43;;
34212;SDS011;20477;51.390;8.102;2022-12-18T08:43:31;8.25;;;5.20;;
34212;SDS011;20477;51.390;8.102;2022-12-18T08:46:17;7.95;;;4.65;;
34212;SDS011;20477;51.390;8.102;2022-12-18T08:48:45;10.10;;;5.30;;
34212;SDS011;20477;51.390;8.102;2022-12-18T08:51:12;8.23;;;4.00;;
34212;SDS011;20477;51.390;8.102;2022-12-18T08:53:39;11.50;;;5.07;;
34212;SDS011;20477;51.390;8.102;2022-12-18T08:56:07;9.63;;;4.70;;
34212;SDS011;20477;51.390;8.102;2022-12-18T08:58:34;9.70;;;4.60;;
34212;SDS011;20477;51.390;8.102;2022-12-18T09:01:02;8.18;;;4.57;;
34212;SDS011;20477;51.390;8.102;2022-12-18T09:03:30;11.45;;;5.30;;
34212;SDS011;20477;51.390;8.102;2022-12-18T09:05:57;6.78;;;3.75;;
34212;SDS011;20477;51.390;8.102;2022-12-18T09:08:24;6.43;;;3.40;;
34212;SDS011;20477;51.390;8.102;2022-12-18T09:10:51;9.23;;;4.25;;
34212;SDS011;20477;51.390;8.102;2022-12-18T09:13:18;7.80;;;4.20;;
34212;SDS011;20477;51.390;8.102;2022-12-18T09:15:49;7.97;;;4.65;;
34212;SDS011;20477;51.390;8.102;2022-12-18T09:18:18;10.93;;;4.78;;
34212;SDS011;20477;51.390;8.102;2022-12-18T09:20:46;7.25;;;3.47;;
34212;SDS011;20477;51.390;8.102;2022-12-18T09:23:13;10.80;;;4.28;;
34212;SDS011;20477;51.390;8.102;2022-12-18T09:25:40;8.43;;;4.28;;
34212;SDS011;20477;51.390;8.102;2022-12-18T09:28:13;7.28;;;4.03;;
34212;SDS011;20477;51.390;8.102;2022-12-18T09:30:43;5.75;;;3.55;;
34212;SDS011;20477;51.390;8.102;2022-12-18T09:33:12;8.80;;;4.68;;
34212;SDS011;20477;51.390;8.102;2022-12-18T09:35:40;7.03;;;3.30;;
34212;SDS011;20477;51.390;8.102;2022-12-18T09:38:08;12.05;;;7.00;;
34212;SDS011;20477;51.390;8.102;2022-12-18T09:40:45;6.40;;;3.90;;
34212;SDS011;20477;51.390;8.102;2022-12-18T09:43:20;9.27;;;3.30;;
34212;SDS011;20477;51.390;8.102;2022-12-18T09:45:55;6.47;;;3.83;;
34212;SDS011;20477;51.390;8.102;2022-12-18T09:48:26;7.38;;;2.97;;
34212;SDS011;20477;51.390;8.102;2022-12-18T09:50:57;6.97;;;4.22;;
34212;SDS011;20477;51.390;8.102;2022-12-18T09:53:27;7.03;;;3.10;;
34212;SDS011;20477;51.390;8.102;2022-12-18T09:55:57;5.45;;;3.00;;
34212;SDS011;20477;51.390;8.102;2022-12-18T10:00:58;5.65;;;3.30;;
34212;SDS011;20477;51.390;8.102;2022-12-18T10:03:25;6.13;;;2.92;;
34212;SDS011;20477;51.390;8.102;2022-12-18T10:08:37;6.75;;;3.13;;
34212;SDS011;20477;51.390;8.102;2022-12-18T10:19:52;11.65;;;7.55;;
34212;SDS011;20477;51.390;8.102;2022-12-18T10:25:12;5.85;;;2.70;;
34212;SDS011;20477;51.390;8.102;2022-12-18T10:27:52;3.72;;;2.05;;
34212;SDS011;20477;51.390;8.102;2022-12-18T10:30:22;3.13;;;2.13;;
34212;SDS011;20477;51.390;8.102;2022-12-18T10:32:49;3.50;;;2.15;;
34212;SDS011;20477;51.390;8.102;2022-12-18T10:35:21;3.53;;;2.15;;
34212;SDS011;20477;51.390;8.102;2022-12-18T10:38:03;9.48;;;2.83;;
34212;SDS011;20477;51.390;8.102;2022-12-18T10:40:31;12.27;;;6.97;;
34212;SDS011;20477;51.390;8.102;2022-12-18T10:43:14;4.75;;;2.60;;
34212;SDS011;20477;51.390;8.102;2022-12-18T10:45:42;15.63;;;8.90;;
34212;SDS011;20477;51.390;8.102;2022-12-18T10:48:29;23.40;;;13.88;;
34212;SDS011;20477;51.390;8.102;2022-12-18T10:50:57;12.35;;;4.50;;
34212;SDS011;20477;51.390;8.102;2022-12-18T10:53:38;22.90;;;12.57;;
34212;SDS011;20477;51.390;8.102;2022-12-18T10:56:06;7.00;;;4.10;;
34212;SDS011;20477;51.390;8.102;2022-12-18T10:58:34;31.80;;;17.48;;
34212;SDS011;20477;51.390;8.102;2022-12-18T11:03:33;5.05;;;2.75;;
34212;SDS011;20477;51.390;8.102;2022-12-18T11:06:05;3.47;;;2.20;;
34212;SDS011;20477;51.390;8.102;2022-12-18T11:08:42;4.97;;;3.70;;
34212;SDS011;20477;51.390;8.102;2022-12-18T11:11:20;8.10;;;1.80;;
34212;SDS011;20477;51.390;8.102;2022-12-18T11:16:45;7.03;;;2.25;;
34212;SDS011;20477;51.390;8.102;2022-12-18T11:19:34;2.33;;;1.83;;
34212;SDS011;20477;51.390;8.102;2022-12-18T11:27:48;6.18;;;1.77;;
34212;SDS011;20477;51.390;8.102;2022-12-18T11:32:54;5.00;;;2.40;;
34212;SDS011;20477;51.390;8.102;2022-12-18T11:35:46;8.18;;;1.92;;
34212;SDS011;20477;51.390;8.102;2022-12-18T11:40:45;1.83;;;1.45;;
34212;SDS011;20477;51.390;8.102;2022-12-18T11:43:27;3.38;;;2.20;;
34212;SDS011;20477;51.390;8.102;2022-12-18T11:46:07;17.88;;;6.63;;
34212;SDS011;20477;51.390;8.102;2022-12-18T11:48:50;3.10;;;1.53;;
34212;SDS011;20477;51.390;8.102;2022-12-18T11:51:25;5.45;;;1.75;;
34212;SDS011;20477;51.390;8.102;2022-12-18T11:54:11;2.42;;;1.42;;
34212;SDS011;20477;51.390;8.102;2022-12-18T11:56:43;2.95;;;1.92;;
34212;SDS011;20477;51.390;8.102;2022-12-18T12:07:53;6.15;;;3.20;;
34212;SDS011;20477;51.390;8.102;2022-12-18T12:10:30;4.07;;;2.72;;
34212;SDS011;20477;51.390;8.102;2022-12-18T12:18:51;4.22;;;1.95;;
34212;SDS011;20477;51.390;8.102;2022-12-18T12:21:39;4.13;;;2.63;;
34212;SDS011;20477;51.390;8.102;2022-12-18T12:27:08;10.05;;;2.97;;
34212;SDS011;20477;51.390;8.102;2022-12-18T12:30:23;5.60;;;2.85;;
34212;SDS011;20477;51.390;8.102;2022-12-18T12:32:52;3.33;;;2.28;;
34212;SDS011;20477;51.390;8.102;2022-12-18T12:38:53;6.30;;;2.90;;
34212;SDS011;20477;51.390;8.102;2022-12-18T12:41:23;5.28;;;2.75;;
34212;SDS011;20477;51.390;8.102;2022-12-18T12:44:15;7.05;;;3.50;;
34212;SDS011;20477;51.390;8.102;2022-12-18T12:46:45;6.57;;;3.97;;
34212;SDS011;20477;51.390;8.102;2022-12-18T12:49:14;4.93;;;3.55;;
34212;SDS011;20477;51.390;8.102;2022-12-18T12:51:45;16.67;;;4.45;;
34212;SDS011;20477;51.390;8.102;2022-12-18T12:54:19;15.45;;;3.28;;
34212;SDS011;20477;51.390;8.102;2022-12-18T12:57:03;7.57;;;3.60;;
34212;SDS011;20477;51.390;8.102;2022-12-18T13:02:31;10.15;;;3.00;;
34212;SDS011;20477;51.390;8.102;2022-12-18T13:05:59;10.82;;;3.15;;
34212;SDS011;20477;51.390;8.102;2022-12-18T13:10:53;6.15;;;3.78;;
34212;SDS011;20477;51.390;8.102;2022-12-18T13:13:48;4.78;;;2.45;;
34212;SDS011;20477;51.390;8.102;2022-12-18T13:16:18;8.80;;;3.95;;
34212;SDS011;20477;51.390;8.102;2022-12-18T13:18:53;7.68;;;3.92;;
34212;SDS011;20477;51.390;8.102;2022-12-18T13:21:26;6.18;;;4.00;;
34212;SDS011;20477;51.390;8.102;2022-12-18T13:23:55;6.40;;;3.72;;
34212;SDS011;20477;51.390;8.102;2022-12-18T13:28:54;12.52;;;3.90;;
34212;SDS011;20477;51.390;8.102;2022-12-18T13:34:22;9.30;;;5.20;;
34212;SDS011;20477;51.390;8.102;2022-12-18T13:36:54;9.25;;;5.18;;
34212;SDS011;20477;51.390;8.102;2022-12-18T13:39:30;8.88;;;4.85;;
34212;SDS011;20477;51.390;8.102;2022-12-18T13:49:53;10.30;;;5.03;;
34212;SDS011;20477;51.390;8.102;2022-12-18T13:52:24;9.85;;;4.65;;
34212;SDS011;20477;51.390;8.102;2022-12-18T13:54:54;8.07;;;4.25;;
34212;SDS011;20477;51.390;8.102;2022-12-18T13:57:32;7.68;;;4.75;;
34212;SDS011;20477;51.390;8.102;2022-12-18T14:00:34;9.48;;;5.00;;
34212;SDS011;20477;51.390;8.102;2022-12-18T14:02:58;7.85;;;4.55;;
34212;SDS011;20477;51.390;8.102;2022-12-18T14:05:29;9.30;;;4.88;;
34212;SDS011;20477;51.390;8.102;2022-12-18T14:08:01;11.60;;;6.38;;
34212;SDS011;20477;51.390;8.102;2022-12-18T14:10:34;11.35;;;4.47;;
34212;SDS011;20477;51.390;8.102;2022-12-18T14:13:19;10.85;;;5.38;;
34212;SDS011;20477;51.390;8.102;2022-12-18T14:15:55;11.40;;;4.90;;
34212;SDS011;20477;51.390;8.102;2022-12-18T14:20:59;25.20;;;11.35;;
34212;SDS011;20477;51.390;8.102;2022-12-18T14:23:35;15.18;;;5.88;;
34212;SDS011;20477;51.390;8.102;2022-12-18T14:34:49;14.60;;;7.05;;
34212;SDS011;20477;51.390;8.102;2022-12-18T14:37:20;15.27;;;8.50;;
34212;SDS011;20477;51.390;8.102;2022-12-18T14:39:51;14.60;;;8.10;;
34212;SDS011;20477;51.390;8.102;2022-12-18T14:42:23;19.10;;;8.75;;
34212;SDS011;20477;51.390;8.102;2022-12-18T14:48:07;19.08;;;8.93;;
34212;SDS011;20477;51.390;8.102;2022-12-18T14:50:41;15.15;;;7.28;;
34212;SDS011;20477;51.390;8.102;2022-12-18T14:53:19;18.73;;;11.32;;
34212;SDS011;20477;51.390;8.102;2022-12-18T14:55:47;10.73;;;6.30;;
34212;SDS011;20477;51.390;8.102;2022-12-18T14:58:15;12.60;;;6.85;;
34212;SDS011;20477;51.390;8.102;2022-12-18T15:00:42;15.13;;;6.20;;
34212;SDS011;20477;51.390;8.102;2022-12-18T15:03:09;15.23;;;7.32;;
34212;SDS011;20477;51.390;8.102;2022-12-18T15:05:36;12.85;;;6.45;;
34212;SDS011;20477;51.390;8.102;2022-12-18T15:08:26;15.82;;;7.78;;
34212;SDS011;20477;51.390;8.102;2022-12-18T15:11:27;42.07;;;17.87;;
34212;SDS011;20477;51.390;8.102;2022-12-18T15:13:57;18.05;;;9.10;;
34212;SDS011;20477;51.390;8.102;2022-12-18T15:16:25;17.88;;;8.50;;
34212;SDS011;20477;51.390;8.102;2022-12-18T15:18:52;18.33;;;8.13;;
34212;SDS011;20477;51.390;8.102;2022-12-18T15:21:19;16.50;;;8.80;;
34212;SDS011;20477;51.390;8.102;2022-12-18T15:23:48;15.45;;;8.30;;
34212;SDS011;20477;51.390;8.102;2022-12-18T15:26:17;14.27;;;8.43;;
34212;SDS011;20477;51.390;8.102;2022-12-18T15:36:23;21.45;;;9.25;;
34212;SDS011;20477;51.390;8.102;2022-12-18T15:38:52;15.82;;;8.40;;
34212;SDS011;20477;51.390;8.102;2022-12-18T15:41:34;17.25;;;8.77;;
34212;SDS011;20477;51.390;8.102;2022-12-18T15:44:02;16.42;;;9.43;;
34212;SDS011;20477;51.390;8.102;2022-12-18T15:46:29;21.33;;;10.82;;
34212;SDS011;20477;51.390;8.102;2022-12-18T15:48:57;22.05;;;10.18;;
34212;SDS011;20477;51.390;8.102;2022-12-18T15:53:59;24.40;;;11.43;;
34212;SDS011;20477;51.390;8.102;2022-12-18T15:56:30;24.65;;;11.35;;
34212;SDS011;20477;51.390;8.102;2022-12-18T15:59:17;20.50;;;11.52;;
34212;SDS011;20477;51.390;8.102;2022-12-18T16:01:45;22.40;;;13.02;;
34212;SDS011;20477;51.390;8.102;2022-12-18T16:04:14;26.90;;;15.35;;
34212;SDS011;20477;51.390;8.102;2022-12-18T16:06:42;32.03;;;17.83;;
34212;SDS011;20477;51.390;8.102;2022-12-18T16:09:29;25.75;;;13.98;;
34212;SDS011;20477;51.390;8.102;2022-12-18T16:11:56;44.17;;;20.13;;
34212;SDS011;20477;51.390;8.102;2022-12-18T16:14:27;144.98;;;78.95;;
34212;SDS011;20477;51.390;8.102;2022-12-18T16:16:57;60.70;;;24.50;;
34212;SDS011;20477;51.390;8.102;2022-12-18T16:19:28;46.60;;;19.45;;
34212;SDS011;20477;51.390;8.102;2022-12-18T16:21:56;29.13;;;14.90;;
34212;SDS011;20477;51.390;8.102;2022-12-18T16:24:24;31.42;;;14.98;;
34212;SDS011;20477;51.390;8.102;2022-12-18T16:26:53;46.55;;;21.92;;
34212;SDS011;20477;51.390;8.102;2022-12-18T16:29:23;53.55;;;24.00;;
34212;SDS011;20477;51.390;8.102;2022-12-18T16:31:57;20.55;;;11.55;;
34212;SDS011;20477;51.390;8.102;2022-12-18T16:34:32;38.85;;;16.98;;
34212;SDS011;20477;51.390;8.102;2022-12-18T16:37:04;25.83;;;14.07;;
34212;SDS011;20477;51.390;8.102;2022-12-18T16:39:32;25.27;;;12.55;;
34212;SDS011;20477;51.390;8.102;2022-12-18T16:42:22;26.10;;;12.98;;
34212;SDS011;20477;51.390;8.102;2022-12-18T16:44:48;23.60;;;11.68;;
34212;SDS011;20477;51.390;8.102;2022-12-18T16:47:15;25.80;;;13.65;;
34212;SDS011;20477;51.390;8.102;2022-12-18T16:49:43;32.67;;;13.90;;
34212;SDS011;20477;51.390;8.102;2022-12-18T16:52:18;36.00;;;15.75;;
34212;SDS011;20477;51.390;8.102;2022-12-18T16:54:45;30.92;;;13.27;;
34212;SDS011;20477;51.390;8.102;2022-12-18T16:57:13;33.67;;;14.48;;
34212;SDS011;20477;51.390;8.102;2022-12-18T16:59:46;35.30;;;14.32;;
34212;SDS011;20477;51.390;8.102;2022-12-18T17:02:20;30.08;;;14.02;;
34212;SDS011;20477;51.390;8.102;2022-12-18T17:04:53;25.23;;;13.82;;